createdAt,value
2023-05-21T00:01:16.537Z,101546.16
2023-05-21T00:06:23.265Z,101543.94
2023-05-21T00:11:28.971Z,101540.58
2023-05-21T00:16:34.399Z,101532.71
2023-05-21T00:21:39.845Z,101533.69
2023-05-21T00:26:45.276Z,101529.90
2023-05-21T00:31:52.309Z,101522.02
2023-05-21T00:36:57.811Z,101523.02
2023-05-21T00:42:03.971Z,101519.30
2023-05-21T00:47:09.490Z,101517.95
2023-05-21T00:52:15.141Z,101514.65
2023-05-21T00:57:22.040Z,101505.79
2023-05-21T01:02:27.745Z,101504.15
2023-05-21T01:07:34.834Z,101500.19
2023-05-21T01:12:42.772Z,101497.19
2023-05-21T01:17:49.872Z,101493.20
2023-05-21T01:22:56.772Z,101490.55
2023-05-21T01:28:02.103Z,101490.20
2023-05-21T01:33:17.408Z,101493.14
2023-05-21T01:38:29.514Z,101492.66
2023-05-21T01:43:38.531Z,101486.89
2023-05-21T01:48:45.298Z,101492.87
2023-05-21T01:53:50.778Z,101490.72
2023-05-21T01:58:58.362Z,101488.58
2023-05-21T02:04:03.962Z,101483.48
2023-05-21T02:09:09.498Z,101483.91
2023-05-21T02:14:15.034Z,101480.16
2023-05-21T02:19:20.419Z,101474.77
2023-05-21T02:24:25.814Z,101475.83
2023-05-21T02:29:31.125Z,101473.48
2023-05-21T02:34:42.382Z,101471.60
2023-05-21T02:39:47.779Z,101467.48
2023-05-21T02:44:53.377Z,101465.14
2023-05-21T02:50:00.204Z,101460.39
2023-05-21T02:55:07.128Z,101462.70
2023-05-21T03:00:14.780Z,101459.29
2023-05-21T03:05:20.797Z,101450.95
2023-05-21T03:10:26.189Z,101447.61
2023-05-21T03:15:33.424Z,101446.20
2023-05-21T03:20:43.710Z,101446.61
2023-05-21T03:25:49.287Z,101449.31
2023-05-21T03:30:54.893Z,101450.41
2023-05-21T03:36:00.510Z,101448.23
2023-05-21T03:41:06.158Z,101450.18
2023-05-21T03:46:11.629Z,101453.45
2023-05-21T03:51:18.142Z,101456.60
2023-05-21T03:56:23.473Z,101462.41
2023-05-21T04:01:29.079Z,101465.39
2023-05-21T04:06:34.417Z,101469.27
2023-05-21T04:11:39.907Z,101469.42
2023-05-21T04:16:45.260Z,101467.93
2023-05-21T04:21:50.711Z,101461.95
2023-05-21T04:26:57.404Z,101466.64
2023-05-21T04:32:02.879Z,101466.80
2023-05-21T04:37:09.439Z,101469.90
2023-05-21T04:42:14.863Z,101473.41
2023-05-21T04:47:20.386Z,101473.55
2023-05-21T04:52:26.846Z,101472.02
2023-05-21T04:57:32.210Z,101473.15
2023-05-21T05:02:37.703Z,101471.80
2023-05-21T05:07:43.615Z,101471.60
2023-05-21T05:12:49.822Z,101470.52
2023-05-21T05:17:56.819Z,101464.15
2023-05-21T05:23:02.516Z,101465.04
2023-05-21T05:28:07.872Z,101465.11
2023-05-21T05:33:13.780Z,101474.34
2023-05-21T05:38:19.230Z,101461.48
2023-05-21T05:43:26.570Z,101471.36
2023-05-21T05:48:31.968Z,101466.48
2023-05-21T05:53:37.988Z,101473.88
2023-05-21T05:58:43.361Z,101469.33
2023-05-21T06:03:48.972Z,101469.27
2023-05-21T06:08:54.546Z,101462.82
2023-05-21T06:14:01.553Z,101460.84
2023-05-21T06:19:07.158Z,101464.06
2023-05-21T06:24:12.626Z,101456.20
2023-05-21T06:29:18.174Z,101453.46
2023-05-21T06:34:23.531Z,101448.91
2023-05-21T06:39:28.943Z,101450.75
2023-05-21T06:44:34.331Z,101451.35
2023-05-21T06:49:39.793Z,101452.75
2023-05-21T06:54:45.409Z,101445.91
2023-05-21T06:59:50.892Z,101447.45
2023-05-21T07:04:56.861Z,101443.81
2023-05-21T07:10:02.313Z,101443.45
2023-05-21T07:15:09.567Z,101444.85
2023-05-21T07:20:15.942Z,101447.11
2023-05-21T07:25:21.635Z,101446.08
2023-05-21T07:30:37.680Z,101442.41
2023-05-21T07:36:06.278Z,101443.43
2023-05-21T07:41:11.772Z,101440.74
2023-05-21T07:46:17.252Z,101445.71
2023-05-21T07:51:23.419Z,101442.85
2023-05-21T07:56:29.454Z,101436.61
2023-05-21T08:01:37.395Z,101432.77
2023-05-21T08:06:42.735Z,101428.73
2023-05-21T08:11:48.220Z,101433.03
2023-05-21T08:16:53.575Z,101429.04
2023-05-21T08:21:59.004Z,101433.58
2023-05-21T08:27:04.845Z,101424.63
2023-05-21T08:32:10.605Z,101424.13
2023-05-21T08:37:18.396Z,101422.73
2023-05-21T08:42:37.067Z,101425.58
2023-05-21T08:47:44.649Z,101423.06
2023-05-21T08:52:51.736Z,101427.69
2023-05-21T08:57:57.103Z,101428.91
2023-05-21T09:03:07.751Z,101425.71
2023-05-21T09:08:18.344Z,101426.27
2023-05-21T09:13:25.114Z,101423.94
2023-05-21T09:18:30.625Z,101421.59
2023-05-21T09:23:36.106Z,101425.69
2023-05-21T09:28:41.581Z,101425.95
2023-05-21T09:33:48.980Z,101423.77
2023-05-21T09:38:54.515Z,101414.80
2023-05-21T09:44:01.657Z,101411.55
2023-05-21T09:49:07.465Z,101406.45
2023-05-21T09:54:13.143Z,101405.53
2023-05-21T09:59:18.841Z,101405.08
2023-05-21T10:04:25.080Z,101399.73
2023-05-21T10:09:31.437Z,101393.66
2023-05-21T10:14:37.333Z,101388.01
2023-05-21T10:19:43.813Z,101378.87
2023-05-21T10:24:50.295Z,101372.61
2023-05-21T10:29:57.142Z,101372.98
2023-05-21T10:35:02.821Z,101374.88
2023-05-21T10:40:11.044Z,101372.89
2023-05-21T10:45:23.271Z,101362.80
2023-05-21T10:50:54.574Z,101356.11
2023-05-21T10:56:12.826Z,101359.67
2023-05-21T11:01:19.636Z,101350.25
2023-05-21T11:06:27.397Z,101352.02
2023-05-21T11:11:44.329Z,101344.40
2023-05-21T11:16:49.705Z,101342.38
2023-05-21T11:21:56.881Z,101347.04
2023-05-21T11:27:04.764Z,101345.31
2023-05-21T11:32:11.700Z,101340.04
2023-05-21T11:37:29.277Z,101338.20
2023-05-21T11:42:39.336Z,101330.39
2023-05-21T11:47:46.148Z,101328.41
2023-05-21T11:52:52.032Z,101332.17
2023-05-21T11:57:58.548Z,101326.80
2023-05-21T12:03:05.968Z,101326.02
2023-05-21T12:08:11.682Z,101327.38
2023-05-21T12:13:17.545Z,101320.90
2023-05-21T12:18:23.365Z,101317.89
2023-05-21T12:23:30.507Z,101322.32
2023-05-21T12:28:36.409Z,101313.29
2023-05-21T12:33:44.146Z,101322.98
2023-05-21T12:38:49.671Z,101320.15
2023-05-21T12:43:55.779Z,101310.15
2023-05-21T12:49:01.376Z,101306.49
2023-05-21T12:54:14.128Z,101306.08
2023-05-21T12:59:19.980Z,101310.80
2023-05-21T13:04:25.610Z,101308.27
2023-05-21T13:09:31.394Z,101306.58
2023-05-21T13:14:36.858Z,101303.95
2023-05-21T13:19:42.493Z,101299.27
2023-05-21T13:24:48.120Z,101293.43
2023-05-21T13:29:53.805Z,101295.16
2023-05-21T13:34:59.185Z,101291.14
2023-05-21T13:40:05.921Z,101287.48
2023-05-21T13:45:14.295Z,101284.86
2023-05-21T13:50:19.806Z,101280.13
2023-05-21T13:55:25.398Z,101282.14
2023-05-21T14:00:31.551Z,101273.90
2023-05-21T14:05:37.224Z,101273.01
2023-05-21T14:10:42.628Z,101274.18
2023-05-21T14:15:48.623Z,101279.35
2023-05-21T14:20:54.720Z,101274.65
2023-05-21T14:26:00.258Z,101271.80
2023-05-21T14:31:06.197Z,101271.20
2023-05-21T14:36:11.702Z,101274.59
2023-05-21T14:41:20.999Z,101273.23
2023-05-21T14:46:27.058Z,101272.90
2023-05-21T14:51:32.783Z,101276.31
2023-05-21T14:56:38.129Z,101273.50
2023-05-21T15:01:43.637Z,101272.05
2023-05-21T15:06:49.644Z,101269.30
2023-05-21T15:11:54.938Z,101266.95
2023-05-21T15:17:00.402Z,101264.92
2023-05-21T15:22:05.908Z,101260.16
2023-05-21T15:27:11.372Z,101260.98
2023-05-21T15:32:36.269Z,101260.17
2023-05-21T15:37:43.680Z,101261.22
2023-05-21T15:43:10.412Z,101258.23
2023-05-21T15:48:26.466Z,101257.87
2023-05-21T15:53:52.248Z,101260.66
2023-05-21T15:59:19.884Z,101262.90
2023-05-21T16:04:45.739Z,101263.44
2023-05-21T16:10:11.445Z,101258.00
2023-05-21T16:15:37.743Z,101258.63
2023-05-21T16:21:04.307Z,101256.67
2023-05-21T16:26:30.986Z,101249.54
2023-05-21T16:31:56.918Z,101244.33
2023-05-21T16:37:24.545Z,101240.11
2023-05-21T16:42:50.312Z,101240.00
2023-05-21T16:48:17.445Z,101234.95
2023-05-21T16:53:44.669Z,101237.33
2023-05-21T16:59:12.239Z,101235.92
2023-05-21T17:04:37.929Z,101238.38
2023-05-21T17:10:04.393Z,101240.81
2023-05-21T17:15:31.261Z,101246.86
2023-05-21T17:20:57.067Z,101251.19
2023-05-21T17:26:18.985Z,101252.88
2023-05-21T17:31:46.646Z,101252.77
2023-05-21T17:37:15.346Z,101252.18
2023-05-21T17:42:41.140Z,101254.40
2023-05-21T17:48:07.164Z,101249.73
2023-05-21T17:53:32.883Z,101248.73
2023-05-21T17:58:58.817Z,101257.88
2023-05-21T18:04:26.577Z,101262.58
2023-05-21T18:09:52.394Z,101269.27
2023-05-21T18:15:18.046Z,101271.30
2023-05-21T18:20:43.873Z,101275.52
2023-05-21T18:26:09.696Z,101280.23
2023-05-21T18:31:36.191Z,101279.00
2023-05-21T18:37:01.880Z,101284.77
2023-05-21T18:42:28.996Z,101285.23
2023-05-21T18:47:55.035Z,101281.86
2023-05-21T18:53:20.770Z,101281.46
2023-05-21T18:58:40.435Z,101287.02
2023-05-21T19:04:06.208Z,101285.65
2023-05-21T19:09:32.357Z,101289.14
2023-05-21T19:14:57.991Z,101290.90
2023-05-21T19:20:24.850Z,101300.87
2023-05-21T19:25:50.526Z,101305.46
2023-05-21T19:31:16.420Z,101315.31
2023-05-21T19:36:52.982Z,101312.84
2023-05-21T19:42:09.575Z,101314.49
2023-05-21T19:47:18.518Z,101322.11
2023-05-21T19:52:44.175Z,101325.96
2023-05-21T19:58:04.704Z,101324.86
2023-05-21T20:03:30.441Z,101327.02
2023-05-21T20:08:56.758Z,101325.23
2023-05-21T20:14:22.472Z,101325.19
2023-05-21T20:19:48.244Z,101325.14
2023-05-21T20:25:13.939Z,101323.77
2023-05-21T20:30:40.140Z,101323.27
2023-05-21T20:36:06.262Z,101323.77
2023-05-21T20:41:32.147Z,101329.59
2023-05-21T20:46:58.349Z,101335.25
2023-05-21T20:52:24.693Z,101342.96
2023-05-21T20:57:43.187Z,101344.91
2023-05-21T21:03:08.948Z,101348.88
2023-05-21T21:08:34.862Z,101348.63
2023-05-21T21:14:00.676Z,101346.14
2023-05-21T21:19:21.343Z,101348.73
2023-05-21T21:24:31.602Z,101350.59
2023-05-21T21:29:57.385Z,101353.27
2023-05-21T21:35:13.808Z,101353.08
2023-05-21T21:40:40.098Z,101354.48
2023-05-21T21:45:59.205Z,101356.59
2023-05-21T21:51:25.503Z,101358.20
2023-05-21T21:56:51.477Z,101353.72
2023-05-21T22:02:17.215Z,101357.47
2023-05-21T22:07:42.874Z,101355.41
2023-05-21T22:13:08.708Z,101353.46
2023-05-21T22:18:40.827Z,101352.89
2023-05-21T22:24:09.539Z,101354.28
2023-05-21T22:29:40.782Z,101356.08
2023-05-21T22:34:48.917Z,101351.12
2023-05-21T22:40:14.615Z,101349.09
2023-05-21T22:45:40.915Z,101349.25
2023-05-21T22:51:01.200Z,101352.52
2023-05-21T22:56:27.454Z,101352.33
2023-05-21T23:01:53.276Z,101350.39
2023-05-21T23:07:19.650Z,101353.15
2023-05-21T23:12:45.397Z,101350.32
2023-05-21T23:18:11.183Z,101349.71
2023-05-21T23:23:37.305Z,101339.55
2023-05-21T23:29:02.955Z,101338.72
2023-05-21T23:34:28.852Z,101333.50
2023-05-21T23:39:45.781Z,101330.36
2023-05-21T23:44:54.122Z,101327.44
2023-05-21T23:50:19.895Z,101325.70
2023-05-21T23:55:45.650Z,101329.67
